Safmarine Sanaga — 3EMH6 — position and weather

sailwx.info

Track history (hours):
 
Tides and Currents Weather Stations Pressure Air Temp Water Temp Dewpoint Dewpoint Depression Visibility Wind Speed Wind Dir Waves Ship Positions

Safmarine Sanaga

Last reported at 2014-Jul-16 08:27 UTC. Time now 2014-Jul-30 07:02 UTC.
Position N 35°15' W 006°42'.
Warning: this ship's position is 13 days out of date.

Length 172 m; draft 9.1 m.

Type: Cargo ship. MMSI: 357573000.

Date/timePositionNaut miles runAvg speedWind from/ knotsBaromVisibWave heightAir tempDewpointWater temp
2014-Jul-16 08:27N 35°15' W 006°42'82 2.9
2014-Jul-15 04:18N 36°09' W 005°26'5 4.3
2014-Jul-15 03:11N 36°05' W 005°23'1 2.1
2014-Jul-15 02:33N 36°04' W 005°22'2 2.1
2014-Jul-15 01:32N 36°05' W 005°20'11 3.7
2014-Jul-14 22:33N 36°09' W 005°07'15 0.7
2014-Jul-13 23:33N 35°59' W 005°21'9 1.8
2014-Jul-13 18:29N 35°53' W 005°30'0 0.0
2014-Jul-13 17:32N 35°53' W 005°30'0 0.0
2014-Jul-13 16:29N 35°53' W 005°30'0 0.0
2014-Jul-13 15:20N 35°53' W 005°30'99 8.9
2014-Jul-13 04:12N 34°55' W 007°07'1319.8
2014-Jul-13 03:33N 34°46' W 007°19'2019.7
2014-Jul-13 02:33N 34°33' W 007°36'2219.5
2014-Jul-13 01:27N 34°17' W 007°54'15218.8
2014-Jul-12 17:22N 32°29' W 010°03'1518.4
2014-Jul-12 16:33N 32°16' W 010°12'2318.8
2014-Jul-12 15:20N 31°57' W 010°27'  
Track history (hours):
 
Tides and Currents Weather Stations Pressure Air Temp Water Temp Dewpoint Dewpoint Depression Visibility Wind Speed Wind Dir Waves Ship Positions

Safmarine Sanaga

Last reported at 2014-Jul-16 08:27 UTC. Time now 2014-Jul-30 07:02 UTC.
Position N 35°15' W 006°42'.
Warning: this ship's position is 13 days out of date.

Length 172 m; draft 9.1 m.

Type: Cargo ship. MMSI: 357573000.

Date/timePositionNaut miles runAvg speedWind from/ knotsBaromVisibWave heightAir tempDewpointWater temp
2014-Jul-16 08:27N 35°15' W 006°42'82 2.9
2014-Jul-15 04:18N 36°09' W 005°26'5 4.3
2014-Jul-15 03:11N 36°05' W 005°23'1 2.1
2014-Jul-15 02:33N 36°04' W 005°22'2 2.1
2014-Jul-15 01:32N 36°05' W 005°20'11 3.7
2014-Jul-14 22:33N 36°09' W 005°07'15 0.7
2014-Jul-13 23:33N 35°59' W 005°21'9 1.8
2014-Jul-13 18:29N 35°53' W 005°30'0 0.0
2014-Jul-13 17:32N 35°53' W 005°30'0 0.0
2014-Jul-13 16:29N 35°53' W 005°30'0 0.0
2014-Jul-13 15:20N 35°53' W 005°30'99 8.9
2014-Jul-13 04:12N 34°55' W 007°07'1319.8
2014-Jul-13 03:33N 34°46' W 007°19'2019.7
2014-Jul-13 02:33N 34°33' W 007°36'2219.5
2014-Jul-13 01:27N 34°17' W 007°54'15218.8
2014-Jul-12 17:22N 32°29' W 010°03'1518.4
2014-Jul-12 16:33N 32°16' W 010°12'2318.8
2014-Jul-12 15:20N 31°57' W 010°27'  

Dump ship's entire track history